sensor_id;sensor_type;location;lat;lon;timestamp;pressure;altitude;pressure_sealevel;temperature;humidity
78073;BME280;67281;48.770;11.440;2023-06-14T00:00:44;96789.56;;;22.61;33.75
78073;BME280;67281;48.770;11.440;2023-06-14T00:03:10;96786.66;;;22.56;34.24
78073;BME280;67281;48.770;11.440;2023-06-14T00:05:39;96787.50;;;22.35;34.35
78073;BME280;67281;48.770;11.440;2023-06-14T00:08:09;96790.75;;;22.30;33.66
78073;BME280;67281;48.770;11.440;2023-06-14T00:10:36;96802.44;;;22.29;34.30
78073;BME280;67281;48.770;11.440;2023-06-14T00:13:04;96794.34;;;22.16;34.67
78073;BME280;67281;48.770;11.440;2023-06-14T00:15:31;96791.16;;;22.27;34.96
78073;BME280;67281;48.770;11.440;2023-06-14T00:17:58;96796.56;;;22.13;34.15
78073;BME280;67281;48.770;11.440;2023-06-14T00:20:29;96790.97;;;22.08;35.16
78073;BME280;67281;48.770;11.440;2023-06-14T00:22:58;96793.56;;;22.01;34.72
78073;BME280;67281;48.770;11.440;2023-06-14T00:25:25;96786.84;;;22.05;34.73
78073;BME280;67281;48.770;11.440;2023-06-14T00:27:55;96790.66;;;22.17;34.73
78073;BME280;67281;48.770;11.440;2023-06-14T00:30:23;96785.84;;;22.06;34.53
78073;BME280;67281;48.770;11.440;2023-06-14T00:32:50;96785.72;;;22.14;34.47
78073;BME280;67281;48.770;11.440;2023-06-14T00:35:18;96785.84;;;22.06;34.82
78073;BME280;67281;48.770;11.440;2023-06-14T00:37:45;96786.09;;;22.11;34.53
78073;BME280;67281;48.770;11.440;2023-06-14T00:40:12;96777.56;;;22.22;34.41
78073;BME280;67281;48.770;11.440;2023-06-14T00:42:39;96786.75;;;21.98;34.86
78073;BME280;67281;48.770;11.440;2023-06-14T00:45:07;96780.88;;;22.03;35.08
78073;BME280;67281;48.770;11.440;2023-06-14T00:47:35;96781.91;;;21.87;35.42
78073;BME280;67281;48.770;11.440;2023-06-14T00:50:07;96779.03;;;22.04;35.37
78073;BME280;67281;48.770;11.440;2023-06-14T00:52:34;96782.47;;;21.83;35.49
78073;BME280;67281;48.770;11.440;2023-06-14T00:55:01;96786.16;;;21.82;35.25
78073;BME280;67281;48.770;11.440;2023-06-14T00:57:28;96783.69;;;21.80;35.62
78073;BME280;67281;48.770;11.440;2023-06-14T00:59:56;96780.19;;;21.80;35.53
78073;BME280;67281;48.770;11.440;2023-06-14T01:02:23;96785.91;;;21.77;35.60
78073;BME280;67281;48.770;11.440;2023-06-14T01:04:51;96778.41;;;21.87;35.37
78073;BME280;67281;48.770;11.440;2023-06-14T01:07:41;96789.66;;;21.82;35.66
78073;BME280;67281;48.770;11.440;2023-06-14T01:10:26;96778.50;;;21.93;36.13
78073;BME280;67281;48.770;11.440;2023-06-14T01:13:07;96780.13;;;21.94;35.74
78073;BME280;67281;48.770;11.440;2023-06-14T01:15:36;96783.63;;;21.74;36.05
78073;BME280;67281;48.770;11.440;2023-06-14T01:18:04;96779.78;;;21.61;35.71
78073;BME280;67281;48.770;11.440;2023-06-14T01:20:32;96784.56;;;21.66;36.53
78073;BME280;67281;48.770;11.440;2023-06-14T01:22:59;96785.59;;;21.86;35.58
78073;BME280;67281;48.770;11.440;2023-06-14T01:25:26;96789.34;;;21.92;35.04
78073;BME280;67281;48.770;11.440;2023-06-14T01:28:00;96787.16;;;21.59;36.34
78073;BME280;67281;48.770;11.440;2023-06-14T01:30:29;96787.88;;;21.89;36.05
78073;BME280;67281;48.770;11.440;2023-06-14T01:32:57;96787.00;;;21.82;35.56
78073;BME280;67281;48.770;11.440;2023-06-14T01:35:25;96787.63;;;21.84;35.66
78073;BME280;67281;48.770;11.440;2023-06-14T01:37:53;96783.09;;;21.63;36.79
78073;BME280;67281;48.770;11.440;2023-06-14T01:40:21;96791.69;;;21.80;35.94
78073;BME280;67281;48.770;11.440;2023-06-14T01:42:49;96779.75;;;21.97;35.99
78073;BME280;67281;48.770;11.440;2023-06-14T01:45:17;96789.31;;;21.71;36.50
78073;BME280;67281;48.770;11.440;2023-06-14T01:47:45;96778.50;;;21.57;36.54
78073;BME280;67281;48.770;11.440;2023-06-14T01:50:13;96779.28;;;21.51;36.84
78073;BME280;67281;48.770;11.440;2023-06-14T01:52:40;96779.22;;;21.45;36.90
78073;BME280;67281;48.770;11.440;2023-06-14T01:55:08;96784.16;;;21.48;36.83
78073;BME280;67281;48.770;11.440;2023-06-14T01:57:35;96778.88;;;21.54;36.53
78073;BME280;67281;48.770;11.440;2023-06-14T02:00:06;96777.94;;;21.62;36.80
78073;BME280;67281;48.770;11.440;2023-06-14T02:02:37;96781.31;;;21.49;37.01
78073;BME280;67281;48.770;11.440;2023-06-14T02:05:04;96781.97;;;21.73;36.68
78073;BME280;67281;48.770;11.440;2023-06-14T02:07:31;96781.34;;;21.56;36.55
78073;BME280;67281;48.770;11.440;2023-06-14T02:09:58;96780.53;;;21.55;37.27
78073;BME280;67281;48.770;11.440;2023-06-14T02:12:25;96782.06;;;21.43;37.02
78073;BME280;67281;48.770;11.440;2023-06-14T02:14:52;96793.28;;;21.39;36.94
78073;BME280;67281;48.770;11.440;2023-06-14T02:17:19;96791.25;;;21.41;36.55
78073;BME280;67281;48.770;11.440;2023-06-14T02:19:46;96784.34;;;21.46;37.17
78073;BME280;67281;48.770;11.440;2023-06-14T02:22:13;96790.78;;;21.37;36.72
78073;BME280;67281;48.770;11.440;2023-06-14T02:24:41;96783.28;;;21.62;36.15
78073;BME280;67281;48.770;11.440;2023-06-14T02:27:08;96783.47;;;21.60;36.64
78073;BME280;67281;48.770;11.440;2023-06-14T02:29:36;96788.69;;;21.69;36.75
78073;BME280;67281;48.770;11.440;2023-06-14T02:32:04;96778.13;;;21.60;36.51
78073;BME280;67281;48.770;11.440;2023-06-14T02:34:34;96785.06;;;21.76;36.91
78073;BME280;67281;48.770;11.440;2023-06-14T02:37:01;96783.66;;;21.59;36.82
78073;BME280;67281;48.770;11.440;2023-06-14T02:39:29;96781.59;;;21.76;36.06
78073;BME280;67281;48.770;11.440;2023-06-14T02:41:56;96792.16;;;21.48;37.06
78073;BME280;67281;48.770;11.440;2023-06-14T02:44:26;96786.03;;;21.69;36.43
78073;BME280;67281;48.770;11.440;2023-06-14T02:46:54;96796.53;;;21.55;36.62
78073;BME280;67281;48.770;11.440;2023-06-14T02:49:22;96783.09;;;21.63;36.63
78073;BME280;67281;48.770;11.440;2023-06-14T02:51:49;96786.91;;;21.76;36.11
78073;BME280;67281;48.770;11.440;2023-06-14T02:54:16;96787.31;;;21.37;37.26
78073;BME280;67281;48.770;11.440;2023-06-14T02:56:43;96792.19;;;21.33;37.12
78073;BME280;67281;48.770;11.440;2023-06-14T02:59:10;96798.19;;;21.56;37.37
78073;BME280;67281;48.770;11.440;2023-06-14T03:01:37;96795.28;;;21.51;37.22
78073;BME280;67281;48.770;11.440;2023-06-14T03:04:08;96798.81;;;21.22;37.89
78073;BME280;67281;48.770;11.440;2023-06-14T03:06:36;96801.34;;;21.45;36.97
78073;BME280;67281;48.770;11.440;2023-06-14T03:09:03;96799.97;;;21.20;37.72
78073;BME280;67281;48.770;11.440;2023-06-14T03:11:36;96796.16;;;21.58;37.18
78073;BME280;67281;48.770;11.440;2023-06-14T03:14:03;96797.25;;;21.28;37.47
78073;BME280;67281;48.770;11.440;2023-06-14T03:16:30;96799.44;;;21.39;37.59
78073;BME280;67281;48.770;11.440;2023-06-14T03:18:58;96791.97;;;21.20;38.14
78073;BME280;67281;48.770;11.440;2023-06-14T03:21:25;96791.06;;;21.13;38.53
78073;BME280;67281;48.770;11.440;2023-06-14T03:23:52;96792.06;;;21.12;38.07
78073;BME280;67281;48.770;11.440;2023-06-14T03:26:19;96801.09;;;21.40;37.76
78073;BME280;67281;48.770;11.440;2023-06-14T03:28:47;96792.84;;;21.56;36.90
78073;BME280;67281;48.770;11.440;2023-06-14T03:31:14;96801.72;;;21.42;37.57
78073;BME280;67281;48.770;11.440;2023-06-14T03:33:42;96800.81;;;21.35;37.99
78073;BME280;67281;48.770;11.440;2023-06-14T03:36:09;96803.66;;;21.19;38.04
78073;BME280;67281;48.770;11.440;2023-06-14T03:38:36;96803.59;;;21.27;38.28
78073;BME280;67281;48.770;11.440;2023-06-14T03:41:03;96803.59;;;21.27;37.56
78073;BME280;67281;48.770;11.440;2023-06-14T03:43:30;96814.31;;;21.19;37.71
78073;BME280;67281;48.770;11.440;2023-06-14T03:45:57;96807.97;;;21.20;37.80
78073;BME280;67281;48.770;11.440;2023-06-14T03:48:23;96811.31;;;21.22;38.15
78073;BME280;67281;48.770;11.440;2023-06-14T03:50:51;96813.75;;;21.09;38.82
78073;BME280;67281;48.770;11.440;2023-06-14T03:53:17;96816.88;;;20.97;38.55
78073;BME280;67281;48.770;11.440;2023-06-14T03:55:47;96818.34;;;21.15;38.50
78073;BME280;67281;48.770;11.440;2023-06-14T03:58:18;96828.47;;;21.19;38.40
78073;BME280;67281;48.770;11.440;2023-06-14T04:00:45;96831.94;;;21.05;38.38
78073;BME280;67281;48.770;11.440;2023-06-14T04:03:12;96839.94;;;21.05;38.77
78073;BME280;67281;48.770;11.440;2023-06-14T04:05:42;96846.41;;;21.25;39.14
78073;BME280;67281;48.770;11.440;2023-06-14T04:08:09;96850.50;;;21.13;38.10
78073;BME280;67281;48.770;11.440;2023-06-14T04:10:36;96842.88;;;20.95;38.83
78073;BME280;67281;48.770;11.440;2023-06-14T04:13:03;96844.81;;;21.16;38.51
78073;BME280;67281;48.770;11.440;2023-06-14T04:15:31;96840.84;;;21.12;38.43
78073;BME280;67281;48.770;11.440;2023-06-14T04:17:58;96852.06;;;21.08;38.49
78073;BME280;67281;48.770;11.440;2023-06-14T04:20:25;96849.72;;;21.27;38.75
78073;BME280;67281;48.770;11.440;2023-06-14T04:22:52;96839.56;;;20.93;39.40
78073;BME280;67281;48.770;11.440;2023-06-14T04:25:19;96847.75;;;21.07;38.00
78073;BME280;67281;48.770;11.440;2023-06-14T04:27:50;96846.97;;;21.36;38.25
78073;BME280;67281;48.770;11.440;2023-06-14T04:30:20;96854.59;;;21.53;38.06
78073;BME280;67281;48.770;11.440;2023-06-14T04:32:48;96854.06;;;21.64;37.61
78073;BME280;67281;48.770;11.440;2023-06-14T04:35:16;96857.19;;;21.68;38.40
78073;BME280;67281;48.770;11.440;2023-06-14T04:37:44;96859.97;;;21.60;37.80
78073;BME280;67281;48.770;11.440;2023-06-14T04:40:12;96853.94;;;21.51;38.06
78073;BME280;67281;48.770;11.440;2023-06-14T04:42:39;96858.22;;;21.67;37.83
78073;BME280;67281;48.770;11.440;2023-06-14T04:45:08;96863.31;;;21.33;38.49
78073;BME280;67281;48.770;11.440;2023-06-14T04:47:35;96858.53;;;21.43;38.19
78073;BME280;67281;48.770;11.440;2023-06-14T04:50:04;96869.94;;;21.51;38.66
78073;BME280;67281;48.770;11.440;2023-06-14T04:52:31;96859.78;;;21.61;37.72
78073;BME280;67281;48.770;11.440;2023-06-14T04:54:59;96863.41;;;21.39;38.33
78073;BME280;67281;48.770;11.440;2023-06-14T04:57:26;96870.91;;;21.21;39.16
78073;BME280;67281;48.770;11.440;2023-06-14T04:59:53;96861.09;;;21.51;38.03
78073;BME280;67281;48.770;11.440;2023-06-14T05:02:22;96866.22;;;21.67;37.74
78073;BME280;67281;48.770;11.440;2023-06-14T05:04:50;96874.31;;;21.59;37.60
78073;BME280;67281;48.770;11.440;2023-06-14T05:07:17;96869.13;;;21.36;39.50
78073;BME280;67281;48.770;11.440;2023-06-14T05:09:47;96868.56;;;21.41;38.76
78073;BME280;67281;48.770;11.440;2023-06-14T05:12:14;96867.13;;;21.59;38.31
78073;BME280;67281;48.770;11.440;2023-06-14T05:14:45;96872.47;;;21.59;38.31
78073;BME280;67281;48.770;11.440;2023-06-14T05:17:12;96875.59;;;21.63;38.17
78073;BME280;67281;48.770;11.440;2023-06-14T05:19:39;96883.78;;;21.61;38.30
78073;BME280;67281;48.770;11.440;2023-06-14T05:22:08;96881.47;;;21.58;38.69
78073;BME280;67281;48.770;11.440;2023-06-14T05:24:35;96874.84;;;21.69;38.43
78073;BME280;67281;48.770;11.440;2023-06-14T05:27:02;96882.22;;;21.67;38.19
78073;BME280;67281;48.770;11.440;2023-06-14T05:29:29;96877.06;;;21.65;38.25
78073;BME280;67281;48.770;11.440;2023-06-14T05:32:15;96882.94;;;21.76;38.00
78073;BME280;67281;48.770;11.440;2023-06-14T05:35:00;96882.78;;;21.62;38.14
78073;BME280;67281;48.770;11.440;2023-06-14T05:37:27;96897.25;;;21.53;38.89
78073;BME280;67281;48.770;11.440;2023-06-14T05:39:54;96895.78;;;21.51;39.25
78073;BME280;67281;48.770;11.440;2023-06-14T05:42:40;96897.50;;;21.58;38.87
78073;BME280;67281;48.770;11.440;2023-06-14T05:45:25;96899.50;;;21.56;38.97
78073;BME280;67281;48.770;11.440;2023-06-14T05:47:52;96906.41;;;21.65;38.19
78073;BME280;67281;48.770;11.440;2023-06-14T05:50:21;96900.63;;;21.62;39.08
78073;BME280;67281;48.770;11.440;2023-06-14T05:52:47;96907.09;;;21.53;38.64
78073;BME280;67281;48.770;11.440;2023-06-14T05:55:16;96911.31;;;21.47;39.10
78073;BME280;67281;48.770;11.440;2023-06-14T05:57:43;96904.84;;;21.56;38.49
78073;BME280;67281;48.770;11.440;2023-06-14T06:00:10;96905.13;;;21.61;38.57
78073;BME280;67281;48.770;11.440;2023-06-14T06:02:38;96903.28;;;21.62;38.65
78073;BME280;67281;48.770;11.440;2023-06-14T06:05:05;96905.13;;;21.61;38.56
78073;BME280;67281;48.770;11.440;2023-06-14T06:07:32;96907.69;;;21.55;38.72
78073;BME280;67281;48.770;11.440;2023-06-14T06:10:04;96904.84;;;21.56;38.95
78073;BME280;67281;48.770;11.440;2023-06-14T06:12:32;96908.97;;;21.59;39.03
78073;BME280;67281;48.770;11.440;2023-06-14T06:14:59;96910.34;;;21.55;38.62
78073;BME280;67281;48.770;11.440;2023-06-14T06:17:27;96915.91;;;21.53;39.14
78073;BME280;67281;48.770;11.440;2023-06-14T06:20:08;96905.25;;;21.53;39.23
78073;BME280;67281;48.770;11.440;2023-06-14T06:22:36;96909.81;;;21.59;38.50
78073;BME280;67281;48.770;11.440;2023-06-14T06:25:03;96908.81;;;21.46;39.82
78073;BME280;67281;48.770;11.440;2023-06-14T06:27:30;96915.25;;;21.51;39.06
78073;BME280;67281;48.770;11.440;2023-06-14T06:29:57;96920.31;;;21.46;38.78
78073;BME280;67281;48.770;11.440;2023-06-14T06:32:24;96929.84;;;21.55;39.05
78073;BME280;67281;48.770;11.440;2023-06-14T06:34:51;96927.47;;;21.60;38.92
78073;BME280;67281;48.770;11.440;2023-06-14T06:37:19;96931.59;;;21.63;39.30
78073;BME280;67281;48.770;11.440;2023-06-14T06:39:46;96926.75;;;21.52;39.25
78073;BME280;67281;48.770;11.440;2023-06-14T06:42:14;96919.50;;;21.46;39.35
78073;BME280;67281;48.770;11.440;2023-06-14T06:44:41;96915.63;;;21.48;39.24
78073;BME280;67281;48.770;11.440;2023-06-14T06:47:08;96923.91;;;21.53;38.70
78073;BME280;67281;48.770;11.440;2023-06-14T06:49:36;96926.34;;;21.55;38.93
78073;BME280;67281;48.770;11.440;2023-06-14T06:52:05;96924.53;;;21.55;39.47
78073;BME280;67281;48.770;11.440;2023-06-14T06:54:33;96936.47;;;21.59;38.81
78073;BME280;67281;48.770;11.440;2023-06-14T06:57:00;96932.06;;;21.67;38.98
78073;BME280;67281;48.770;11.440;2023-06-14T06:59:28;96937.41;;;21.67;39.12
78073;BME280;67281;48.770;11.440;2023-06-14T07:01:55;96933.91;;;21.66;38.85
78073;BME280;67281;48.770;11.440;2023-06-14T07:04:22;96939.41;;;21.64;38.71
78073;BME280;67281;48.770;11.440;2023-06-14T07:06:49;96944.19;;;21.69;38.60
78073;BME280;67281;48.770;11.440;2023-06-14T07:09:16;96937.75;;;21.63;38.17
78073;BME280;67281;48.770;11.440;2023-06-14T07:11:44;96944.84;;;21.56;38.44
78073;BME280;67281;48.770;11.440;2023-06-14T07:14:11;96942.19;;;21.56;38.85
78073;BME280;67281;48.770;11.440;2023-06-14T07:16:38;96950.44;;;21.61;38.81
78073;BME280;67281;48.770;11.440;2023-06-14T07:19:05;96954.13;;;21.60;38.40
78073;BME280;67281;48.770;11.440;2023-06-14T07:21:32;96948.06;;;21.67;38.58
78073;BME280;67281;48.770;11.440;2023-06-14T07:23:59;96950.00;;;21.73;38.54
78073;BME280;67281;48.770;11.440;2023-06-14T07:26:27;96952.28;;;21.76;37.59
78073;BME280;67281;48.770;11.440;2023-06-14T07:28:54;96962.50;;;21.72;38.41
78073;BME280;67281;48.770;11.440;2023-06-14T07:31:20;96952.56;;;21.66;38.86
78073;BME280;67281;48.770;11.440;2023-06-14T07:33:48;96959.75;;;21.65;38.22
78073;BME280;67281;48.770;11.440;2023-06-14T07:36:15;96970.88;;;21.69;38.88
78073;BME280;67281;48.770;11.440;2023-06-14T07:38:42;96962.22;;;21.67;38.60
78073;BME280;67281;48.770;11.440;2023-06-14T07:41:08;96969.69;;;21.72;38.18
78073;BME280;67281;48.770;11.440;2023-06-14T07:43:35;96970.31;;;21.74;38.29
78073;BME280;67281;48.770;11.440;2023-06-14T07:46:02;96974.91;;;21.65;38.92
78073;BME280;67281;48.770;11.440;2023-06-14T07:48:34;96974.38;;;21.70;38.73
78073;BME280;67281;48.770;11.440;2023-06-14T07:51:01;96975.94;;;21.79;38.37
78073;BME280;67281;48.770;11.440;2023-06-14T07:53:28;96979.50;;;21.71;38.82
78073;BME280;67281;48.770;11.440;2023-06-14T07:55:56;96976.13;;;21.77;38.87
78073;BME280;67281;48.770;11.440;2023-06-14T07:58:23;96974.91;;;21.80;38.51
78073;BME280;67281;48.770;11.440;2023-06-14T08:00:49;96981.81;;;21.74;39.14
78073;BME280;67281;48.770;11.440;2023-06-14T08:03:16;96980.72;;;21.69;38.98
78073;BME280;67281;48.770;11.440;2023-06-14T08:05:45;96975.09;;;21.78;38.55
78073;BME280;67281;48.770;11.440;2023-06-14T08:08:12;96970.88;;;21.84;38.38
78073;BME280;67281;48.770;11.440;2023-06-14T08:10:39;96972.34;;;21.86;39.25
78073;BME280;67281;48.770;11.440;2023-06-14T08:13:06;96978.69;;;21.85;38.70
78073;BME280;67281;48.770;11.440;2023-06-14T08:15:33;96978.03;;;21.83;38.83
78073;BME280;67281;48.770;11.440;2023-06-14T08:18:00;96984.50;;;21.89;38.66
78073;BME280;67281;48.770;11.440;2023-06-14T08:20:28;96985.97;;;21.91;38.81
78073;BME280;67281;48.770;11.440;2023-06-14T08:22:57;96985.31;;;21.89;39.34
78073;BME280;67281;48.770;11.440;2023-06-14T08:25:24;96979.16;;;21.89;38.79
78073;BME280;67281;48.770;11.440;2023-06-14T08:27:51;96980.44;;;21.93;38.62
78073;BME280;67281;48.770;11.440;2023-06-14T08:30:18;96984.38;;;21.97;38.90
78073;BME280;67281;48.770;11.440;2023-06-14T08:32:45;96982.38;;;21.99;39.01
78073;BME280;67281;48.770;11.440;2023-06-14T08:35:16;96991.69;;;22.03;38.38
78073;BME280;67281;48.770;11.440;2023-06-14T08:37:45;96990.13;;;22.09;38.69
78073;BME280;67281;48.770;11.440;2023-06-14T08:40:22;96990.56;;;22.12;38.66
78073;BME280;67281;48.770;11.440;2023-06-14T08:42:51;96989.38;;;22.15;38.76
78073;BME280;67281;48.770;11.440;2023-06-14T08:45:20;96994.34;;;22.18;38.71
78073;BME280;67281;48.770;11.440;2023-06-14T08:47:53;96990.47;;;22.20;39.06
78073;BME280;67281;48.770;11.440;2023-06-14T08:50:26;96998.94;;;22.24;38.65
78073;BME280;67281;48.770;11.440;2023-06-14T08:52:59;97002.88;;;22.28;38.53
78073;BME280;67281;48.770;11.440;2023-06-14T08:55:31;97005.94;;;22.25;38.94
78073;BME280;67281;48.770;11.440;2023-06-14T08:58:02;96998.75;;;22.25;38.40
78073;BME280;67281;48.770;11.440;2023-06-14T09:00:30;96996.09;;;22.25;38.64
78073;BME280;67281;48.770;11.440;2023-06-14T09:02:57;96996.50;;;22.29;38.57
78073;BME280;67281;48.770;11.440;2023-06-14T09:05:26;96992.44;;;22.33;38.51
78073;BME280;67281;48.770;11.440;2023-06-14T09:07:53;96990.22;;;22.37;38.27
78073;BME280;67281;48.770;11.440;2023-06-14T09:10:24;96991.06;;;22.37;37.99
78073;BME280;67281;48.770;11.440;2023-06-14T09:12:53;96991.69;;;22.39;38.26
78073;BME280;67281;48.770;11.440;2023-06-14T09:15:21;96996.22;;;22.39;38.54
78073;BME280;67281;48.770;11.440;2023-06-14T09:17:48;96994.19;;;22.41;38.47
78073;BME280;67281;48.770;11.440;2023-06-14T09:20:15;96989.47;;;22.43;38.52
78073;BME280;67281;48.770;11.440;2023-06-14T09:22:46;96990.13;;;22.45;38.01
78073;BME280;67281;48.770;11.440;2023-06-14T09:25:13;96999.97;;;22.44;37.99
78073;BME280;67281;48.770;11.440;2023-06-14T09:30:29;96987.72;;;22.50;38.05
78073;BME280;67281;48.770;11.440;2023-06-14T09:32:56;96991.03;;;22.52;37.67
78073;BME280;67281;48.770;11.440;2023-06-14T09:35:27;97005.03;;;22.54;37.14
78073;BME280;67281;48.770;11.440;2023-06-14T09:37:56;97000.31;;;22.56;37.52
78073;BME280;67281;48.770;11.440;2023-06-14T09:40:23;97000.13;;;22.57;37.43
78073;BME280;67281;48.770;11.440;2023-06-14T09:42:51;96994.59;;;22.59;36.57
78073;BME280;67281;48.770;11.440;2023-06-14T09:45:19;97006.28;;;22.58;36.93
78073;BME280;67281;48.770;11.440;2023-06-14T09:47:49;96999.94;;;22.59;36.49
78073;BME280;67281;48.770;11.440;2023-06-14T09:50:32;96998.47;;;22.56;36.33
78073;BME280;67281;48.770;11.440;2023-06-14T09:53:03;96996.63;;;22.57;36.09
78073;BME280;67281;48.770;11.440;2023-06-14T09:55:35;97005.53;;;22.64;35.84
78073;BME280;67281;48.770;11.440;2023-06-14T09:58:05;97015.03;;;22.67;35.66
78073;BME280;67281;48.770;11.440;2023-06-14T10:00:35;96999.63;;;22.69;35.99
78073;BME280;67281;48.770;11.440;2023-06-14T10:03:27;97004.59;;;22.72;35.81
78073;BME280;67281;48.770;11.440;2023-06-14T10:06:08;97007.72;;;22.75;35.60
78073;BME280;67281;48.770;11.440;2023-06-14T10:08:36;97003.22;;;22.76;35.33
78073;BME280;67281;48.770;11.440;2023-06-14T10:11:04;97003.22;;;22.76;35.09
78073;BME280;67281;48.770;11.440;2023-06-14T10:13:32;97004.88;;;22.77;34.83
78073;BME280;67281;48.770;11.440;2023-06-14T10:16:07;97000.19;;;22.79;35.10
78073;BME280;67281;48.770;11.440;2023-06-14T10:18:49;96998.97;;;22.81;35.01
78073;BME280;67281;48.770;11.440;2023-06-14T10:21:32;97002.47;;;22.82;35.39
78073;BME280;67281;48.770;11.440;2023-06-14T10:24:04;96999.63;;;22.83;34.77
78073;BME280;67281;48.770;11.440;2023-06-14T10:26:32;96999.06;;;22.88;34.73
78073;BME280;67281;48.770;11.440;2023-06-14T10:29:01;96995.16;;;22.90;35.03
78073;BME280;67281;48.770;11.440;2023-06-14T10:31:41;96997.00;;;22.90;35.35
78073;BME280;67281;48.770;11.440;2023-06-14T10:34:11;96994.78;;;22.93;34.33
78073;BME280;67281;48.770;11.440;2023-06-14T10:36:42;96990.47;;;22.92;34.35
78073;BME280;67281;48.770;11.440;2023-06-14T10:39:18;96993.13;;;22.92;34.20
78073;BME280;67281;48.770;11.440;2023-06-14T10:41:53;96984.34;;;22.99;33.83
78073;BME280;67281;48.770;11.440;2023-06-14T10:46:49;97001.03;;;23.01;34.25
78073;BME280;67281;48.770;11.440;2023-06-14T10:49:19;96986.63;;;23.02;34.19
78073;BME280;67281;48.770;11.440;2023-06-14T10:51:50;96978.41;;;23.03;34.53
78073;BME280;67281;48.770;11.440;2023-06-14T10:54:18;96982.53;;;23.06;34.97
78073;BME280;67281;48.770;11.440;2023-06-14T10:56:52;96987.50;;;23.09;34.82
78073;BME280;67281;48.770;11.440;2023-06-14T10:59:19;96977.44;;;23.11;35.30
78073;BME280;67281;48.770;11.440;2023-06-14T11:02:06;96975.22;;;23.14;35.08
78073;BME280;67281;48.770;11.440;2023-06-14T11:04:49;96980.75;;;23.13;34.58
78073;BME280;67281;48.770;11.440;2023-06-14T11:12:39;96978.97;;;23.20;35.02
78073;BME280;67281;48.770;11.440;2023-06-14T11:15:06;96971.56;;;23.22;34.92
78073;BME280;67281;48.770;11.440;2023-06-14T11:17:34;96965.84;;;23.25;33.99
78073;BME280;67281;48.770;11.440;2023-06-14T11:22:42;96974.25;;;23.22;35.05
78073;BME280;67281;48.770;11.440;2023-06-14T11:25:09;96982.06;;;23.23;34.03
78073;BME280;67281;48.770;11.440;2023-06-14T11:27:36;96975.06;;;23.22;34.63
78073;BME280;67281;48.770;11.440;2023-06-14T11:30:07;96969.28;;;23.19;34.96
78073;BME280;67281;48.770;11.440;2023-06-14T11:32:34;96970.94;;;23.20;34.50
78073;BME280;67281;48.770;11.440;2023-06-14T11:35:02;96976.53;;;23.25;33.68
78073;BME280;67281;48.770;11.440;2023-06-14T11:37:29;96979.47;;;23.30;34.23
78073;BME280;67281;48.770;11.440;2023-06-14T11:39:57;96972.06;;;23.32;34.45
78073;BME280;67281;48.770;11.440;2023-06-14T11:42:26;96973.09;;;23.31;34.74
78073;BME280;67281;48.770;11.440;2023-06-14T11:44:54;96961.75;;;23.29;34.33
78073;BME280;67281;48.770;11.440;2023-06-14T11:47:35;96965.44;;;23.28;34.50
78073;BME280;67281;48.770;11.440;2023-06-14T11:50:03;96972.66;;;23.27;34.16
78073;BME280;67281;48.770;11.440;2023-06-14T11:52:31;96963.16;;;23.25;33.84
78073;BME280;67281;48.770;11.440;2023-06-14T11:54:58;96965.84;;;23.25;33.74
78073;BME280;67281;48.770;11.440;2023-06-14T11:57:25;96957.44;;;23.28;33.90
78073;BME280;67281;48.770;11.440;2023-06-14T11:59:54;96955.59;;;23.28;34.25
78073;BME280;67281;48.770;11.440;2023-06-14T12:02:21;96953.72;;;23.29;33.98
78073;BME280;67281;48.770;11.440;2023-06-14T12:04:50;96950.66;;;23.32;34.44
78073;BME280;67281;48.770;11.440;2023-06-14T12:07:18;96954.16;;;23.33;34.83
78073;BME280;67281;48.770;11.440;2023-06-14T12:12:25;96950.22;;;23.28;33.99
78073;BME280;67281;48.770;11.440;2023-06-14T12:14:54;96949.41;;;23.28;33.99
78073;BME280;67281;48.770;11.440;2023-06-14T12:17:21;96947.50;;;23.22;34.59
78073;BME280;67281;48.770;11.440;2023-06-14T12:19:49;96948.13;;;23.24;34.49
78073;BME280;67281;48.770;11.440;2023-06-14T12:22:16;96948.78;;;23.26;33.55
78073;BME280;67281;48.770;11.440;2023-06-14T12:24:44;96952.53;;;23.32;34.28
78073;BME280;67281;48.770;11.440;2023-06-14T12:27:11;96945.97;;;23.34;34.00
78073;BME280;67281;48.770;11.440;2023-06-14T12:29:42;96944.09;;;23.35;34.19
78073;BME280;67281;48.770;11.440;2023-06-14T12:32:12;96935.31;;;23.41;33.54
78073;BME280;67281;48.770;11.440;2023-06-14T12:34:39;96936.97;;;23.42;34.25
78073;BME280;67281;48.770;11.440;2023-06-14T12:37:06;96935.53;;;23.46;34.12
78073;BME280;67281;48.770;11.440;2023-06-14T12:39:33;96940.50;;;23.49;33.94
78073;BME280;67281;48.770;11.440;2023-06-14T12:42:00;96942.97;;;23.50;34.03
78073;BME280;67281;48.770;11.440;2023-06-14T12:44:27;96947.97;;;23.53;34.18
78073;BME280;67281;48.770;11.440;2023-06-14T12:46:54;96944.72;;;23.58;34.03
78073;BME280;67281;48.770;11.440;2023-06-14T12:49:21;96945.34;;;23.60;33.86
78073;BME280;67281;48.770;11.440;2023-06-14T12:51:48;96953.56;;;23.58;34.17
78073;BME280;67281;48.770;11.440;2023-06-14T12:54:15;96945.72;;;23.57;34.21
78073;BME280;67281;48.770;11.440;2023-06-14T12:56:53;96954.78;;;23.56;34.40
78073;BME280;67281;48.770;11.440;2023-06-14T12:59:21;96953.13;;;23.55;34.18
78073;BME280;67281;48.770;11.440;2023-06-14T13:01:48;96961.97;;;23.55;34.25
78073;BME280;67281;48.770;11.440;2023-06-14T13:04:17;96965.28;;;23.57;34.43
78073;BME280;67281;48.770;11.440;2023-06-14T13:06:44;96961.59;;;23.58;34.33
78073;BME280;67281;48.770;11.440;2023-06-14T13:09:11;96964.25;;;23.58;34.61
78073;BME280;67281;48.770;11.440;2023-06-14T13:11:42;96966.94;;;23.58;33.99
78073;BME280;67281;48.770;11.440;2023-06-14T13:14:12;96960.56;;;23.59;34.83